createdAt,value
2022-11-26T00:00:15.638Z,60.50
2022-11-26T00:02:43.842Z,62.80
2022-11-26T00:05:13.399Z,59.90
2022-11-26T00:07:41.918Z,60.00
2022-11-26T00:10:15.267Z,60.30
2022-11-26T00:12:43.472Z,60.40
2022-11-26T00:15:16.404Z,58.80
2022-11-26T00:17:44.502Z,57.70
2022-11-26T00:20:12.592Z,57.70
2022-11-26T00:22:42.399Z,55.80
2022-11-26T00:25:18.082Z,58.60
2022-11-26T00:27:46.173Z,61.60
2022-11-26T00:30:20.718Z,63.90
2022-11-26T00:32:48.902Z,64.10
2022-11-26T00:35:17.119Z,60.50
2022-11-26T00:37:47.394Z,60.80
2022-11-26T00:40:20.652Z,67.00
2022-11-26T00:42:48.720Z,70.20
2022-11-26T00:45:19.647Z,73.00
2022-11-26T00:47:47.714Z,75.30
2022-11-26T00:50:17.062Z,75.80
2022-11-26T00:52:45.215Z,75.60
2022-11-26T00:55:20.650Z,74.70
2022-11-26T00:57:48.706Z,74.60
2022-11-26T01:00:20.211Z,73.50
2022-11-26T01:02:48.369Z,70.30
2022-11-26T01:05:16.762Z,66.90
2022-11-26T01:07:45.291Z,65.00
2022-11-26T01:10:17.743Z,64.20
2022-11-26T01:12:46.017Z,61.80
2022-11-26T01:15:14.373Z,59.40
2022-11-26T01:17:43.861Z,59.30
2022-11-26T01:20:25.309Z,58.10
2022-11-26T01:22:54.111Z,53.90
2022-11-26T01:25:23.007Z,52.80
2022-11-26T01:27:51.081Z,54.70
2022-11-26T01:30:21.563Z,57.50
2022-11-26T01:32:51.057Z,58.40
2022-11-26T01:35:19.638Z,59.40
2022-11-26T01:37:47.987Z,56.70
2022-11-26T01:40:32.974Z,49.10
2022-11-26T01:43:02.051Z,48.10
2022-11-26T01:45:30.118Z,43.00
2022-11-26T01:47:59.673Z,38.30
2022-11-26T01:50:52.958Z,36.30
2022-11-26T01:53:27.408Z,34.30
2022-11-26T01:55:57.003Z,35.80
2022-11-26T01:58:27.507Z,25.80
2022-11-26T02:00:55.619Z,20.90
2022-11-26T02:03:25.276Z,24.20
2022-11-26T02:05:56.536Z,28.70
2022-11-26T02:08:25.700Z,29.80
2022-11-26T02:10:53.919Z,29.50
2022-11-26T02:13:22.066Z,25.20
2022-11-26T02:15:54.166Z,28.20
2022-11-26T02:18:22.260Z,32.70
2022-11-26T02:20:53.892Z,30.40
2022-11-26T02:24:05.328Z,25.30
2022-11-26T02:27:17.901Z,27.50
2022-11-26T02:30:02.027Z,24.80
2022-11-26T02:35:01.186Z,24.50
2022-11-26T02:37:30.730Z,20.40
2022-11-26T02:39:58.930Z,20.90
2022-11-26T02:42:28.533Z,19.60
2022-11-26T02:44:59.028Z,17.80
2022-11-26T02:47:27.994Z,14.90
2022-11-26T02:49:56.097Z,17.80
2022-11-26T02:52:24.381Z,17.70
2022-11-26T02:54:52.469Z,19.70
2022-11-26T02:57:21.366Z,19.10
2022-11-26T02:59:49.398Z,12.60
2022-11-26T03:02:21.490Z,4.00
2022-11-26T03:04:51.346Z,1.00
2022-11-26T03:07:19.548Z,1.00
2022-11-26T03:09:51.605Z,1.00
2022-11-26T03:12:19.879Z,1.00
2022-11-26T03:14:47.904Z,1.00
2022-11-26T03:17:16.010Z,1.00
2022-11-26T03:19:45.461Z,1.00
2022-11-26T03:22:13.542Z,1.00
2022-11-26T03:24:41.629Z,1.00
2022-11-26T03:27:09.655Z,1.00
2022-11-26T03:29:37.811Z,1.00
2022-11-26T03:32:06.286Z,1.00
2022-11-26T03:34:34.561Z,1.00
2022-11-26T03:37:04.090Z,1.00
2022-11-26T03:39:32.164Z,1.00
2022-11-26T03:42:00.197Z,1.00
2022-11-26T03:44:28.311Z,1.00
2022-11-26T03:46:56.369Z,1.00
2022-11-26T03:49:24.666Z,1.00
2022-11-26T03:51:52.697Z,1.00
2022-11-26T03:54:22.106Z,1.00
2022-11-26T03:56:50.158Z,1.00
2022-11-26T03:59:18.303Z,1.00
2022-11-26T04:01:46.398Z,1.00
2022-11-26T04:04:14.543Z,1.00
2022-11-26T04:06:42.706Z,1.00
2022-11-26T04:09:10.825Z,1.00
2022-11-26T04:11:40.276Z,1.00
2022-11-26T04:14:08.326Z,1.00
2022-11-26T04:16:36.416Z,1.00
2022-11-26T04:19:04.586Z,1.00
2022-11-26T04:21:32.614Z,1.00
2022-11-26T04:24:00.658Z,1.00
2022-11-26T04:26:28.755Z,1.00
2022-11-26T04:28:58.250Z,1.00
2022-11-26T04:31:26.360Z,1.00
2022-11-26T04:33:54.532Z,1.00
2022-11-26T04:36:22.547Z,1.00
2022-11-26T04:38:50.666Z,1.00
2022-11-26T04:41:18.706Z,1.00
2022-11-26T04:43:46.833Z,1.00
2022-11-26T04:46:16.345Z,1.00
2022-11-26T04:48:44.484Z,1.00
2022-11-26T04:51:12.504Z,1.00
2022-11-26T04:53:40.574Z,1.00
2022-11-26T04:56:08.836Z,1.00
2022-11-26T04:58:36.999Z,1.00
2022-11-26T05:01:05.206Z,1.00
2022-11-26T05:03:36.309Z,1.00
2022-11-26T05:06:04.414Z,1.00
2022-11-26T05:08:32.469Z,1.00
2022-11-26T05:11:01.556Z,1.00
2022-11-26T05:13:29.688Z,1.00
2022-11-26T05:15:57.769Z,1.00
2022-11-26T05:18:26.551Z,1.00
2022-11-26T05:20:56.007Z,1.00
2022-11-26T05:23:24.176Z,1.00
2022-11-26T05:25:52.195Z,1.00
2022-11-26T05:28:20.252Z,1.00
2022-11-26T05:30:48.319Z,1.00
2022-11-26T05:33:16.484Z,1.00
2022-11-26T05:35:44.512Z,1.00
2022-11-26T05:38:13.946Z,1.00
2022-11-26T05:40:41.991Z,1.00
2022-11-26T05:43:10.121Z,1.00
2022-11-26T05:45:38.225Z,1.00
2022-11-26T05:48:06.895Z,1.00
2022-11-26T05:50:34.941Z,1.00
2022-11-26T05:53:02.980Z,1.00
2022-11-26T05:55:32.418Z,1.00
2022-11-26T05:58:00.557Z,1.00
2022-11-26T06:00:28.666Z,1.00
2022-11-26T06:02:56.828Z,1.00
2022-11-26T06:05:24.962Z,1.00
2022-11-26T06:07:53.163Z,1.00
2022-11-26T06:10:21.332Z,1.00
2022-11-26T06:12:50.792Z,1.00
2022-11-26T06:15:18.872Z,1.00
2022-11-26T06:17:46.936Z,1.00
2022-11-26T06:20:15.293Z,1.00
2022-11-26T06:22:44.305Z,1.00
2022-11-26T06:25:13.310Z,1.80
2022-11-26T06:27:41.435Z,1.60
2022-11-26T06:30:15.226Z,2.50
2022-11-26T06:32:43.366Z,2.20
2022-11-26T06:35:11.459Z,4.30
2022-11-26T06:37:39.521Z,6.50
2022-11-26T06:40:09.324Z,5.50
2022-11-26T06:42:37.439Z,4.20
2022-11-26T06:45:06.183Z,4.80
2022-11-26T06:47:35.729Z,10.00
2022-11-26T06:50:09.258Z,13.10
2022-11-26T06:52:38.829Z,16.60
2022-11-26T06:55:07.429Z,20.80
2022-11-26T06:57:35.617Z,23.20
2022-11-26T07:00:03.689Z,26.50
2022-11-26T07:02:31.941Z,31.20
2022-11-26T07:05:01.427Z,33.20
2022-11-26T07:07:29.549Z,34.50
2022-11-26T07:09:57.680Z,35.00
2022-11-26T07:12:25.826Z,35.50
2022-11-26T07:14:53.866Z,36.60
2022-11-26T07:17:22.052Z,37.70
2022-11-26T07:19:50.816Z,39.80
2022-11-26T07:22:20.335Z,41.20
2022-11-26T07:24:48.400Z,41.70
2022-11-26T07:27:16.510Z,41.30
2022-11-26T07:29:44.598Z,41.30
2022-11-26T07:32:12.645Z,41.90
2022-11-26T07:34:40.994Z,42.50
2022-11-26T07:37:09.149Z,43.40
2022-11-26T07:39:38.984Z,44.40
2022-11-26T07:42:07.142Z,45.10
2022-11-26T07:44:35.331Z,45.80
2022-11-26T07:47:04.457Z,46.50
2022-11-26T07:49:32.540Z,46.90
2022-11-26T07:52:00.644Z,47.40
2022-11-26T07:54:28.759Z,48.20
2022-11-26T07:56:58.173Z,49.00
2022-11-26T07:59:26.347Z,48.70
2022-11-26T08:01:54.463Z,49.50
2022-11-26T08:04:22.632Z,49.70
2022-11-26T08:06:50.704Z,49.70
2022-11-26T08:09:18.762Z,49.80
2022-11-26T08:11:47.185Z,51.60
2022-11-26T08:14:16.624Z,52.40
2022-11-26T08:16:44.822Z,53.00
2022-11-26T08:19:13.766Z,54.50
2022-11-26T08:21:41.925Z,55.70
2022-11-26T08:24:11.671Z,57.50
2022-11-26T08:26:43.918Z,58.20
2022-11-26T08:29:12.845Z,58.00
2022-11-26T08:31:45.511Z,58.50
2022-11-26T08:34:15.302Z,59.10
2022-11-26T08:36:43.437Z,59.30
2022-11-26T08:39:13.135Z,60.20
2022-11-26T08:41:41.233Z,61.40
2022-11-26T08:44:09.397Z,61.70
2022-11-26T08:46:37.967Z,62.50
2022-11-26T08:49:07.876Z,64.10
2022-11-26T08:51:35.941Z,64.50
2022-11-26T08:54:04.057Z,65.80
2022-11-26T08:56:32.274Z,68.80
2022-11-26T08:59:00.358Z,67.70
2022-11-26T09:01:29.476Z,68.20
2022-11-26T09:03:59.260Z,68.20
2022-11-26T09:06:30.130Z,67.40
2022-11-26T09:09:17.794Z,70.20
2022-11-26T09:11:48.031Z,73.70
2022-11-26T09:14:16.535Z,74.20
2022-11-26T09:16:44.677Z,77.00
2022-11-26T09:19:13.477Z,78.80
2022-11-26T09:21:43.023Z,79.00
2022-11-26T09:24:11.102Z,80.40
2022-11-26T09:26:39.158Z,80.70
2022-11-26T09:29:07.683Z,82.50
2022-11-26T09:31:35.772Z,83.80
2022-11-26T09:34:03.893Z,86.40
2022-11-26T09:36:32.341Z,88.10
2022-11-26T09:39:01.829Z,90.00
2022-11-26T09:41:39.891Z,91.00
2022-11-26T09:44:29.717Z,91.50
2022-11-26T09:47:14.180Z,92.50
2022-11-26T09:49:47.399Z,92.60
2022-11-26T09:52:15.610Z,92.60
2022-11-26T09:54:45.069Z,92.60
2022-11-26T09:57:19.640Z,92.60
2022-11-26T09:59:47.777Z,93.00
2022-11-26T10:02:15.964Z,93.00
2022-11-26T10:04:44.056Z,93.10
2022-11-26T10:07:22.214Z,93.00
2022-11-26T10:09:56.758Z,93.00
2022-11-26T10:12:32.975Z,93.20
2022-11-26T10:15:04.741Z,93.20
2022-11-26T10:17:41.151Z,93.20
2022-11-26T10:20:42.091Z,93.00
2022-11-26T10:23:16.895Z,93.70
2022-11-26T10:25:47.775Z,93.40
2022-11-26T10:28:20.506Z,93.40
2022-11-26T10:30:51.621Z,93.10
2022-11-26T10:33:19.805Z,93.10
2022-11-26T10:35:47.841Z,93.40
2022-11-26T10:38:16.026Z,93.30
2022-11-26T10:40:44.146Z,93.10
2022-11-26T10:43:18.558Z,93.90
2022-11-26T10:45:47.943Z,94.20
2022-11-26T10:48:17.936Z,94.90
2022-11-26T10:50:55.395Z,95.20
2022-11-26T10:53:23.951Z,95.90
2022-11-26T10:55:52.663Z,96.30
2022-11-26T10:58:23.119Z,96.20
2022-11-26T11:00:56.372Z,96.40
2022-11-26T11:03:38.526Z,96.50
2022-11-26T11:06:42.562Z,97.20
2022-11-26T11:09:24.963Z,97.00
2022-11-26T11:12:15.358Z,97.80
2022-11-26T11:14:45.871Z,97.00
2022-11-26T11:17:34.547Z,96.70
2022-11-26T11:20:06.059Z,96.70
2022-11-26T11:22:34.219Z,98.00
2022-11-26T11:25:02.362Z,98.40
2022-11-26T11:27:41.023Z,98.00
2022-11-26T11:30:24.960Z,98.10
2022-11-26T11:32:55.717Z,98.30
2022-11-26T11:35:24.794Z,98.20
2022-11-26T11:37:53.621Z,98.10
2022-11-26T11:40:25.539Z,98.00
2022-11-26T11:42:56.017Z,99.10
2022-11-26T11:45:29.761Z,99.50
2022-11-26T11:47:58.921Z,99.40
2022-11-26T11:50:31.507Z,99.10
2022-11-26T11:53:15.322Z,99.50
2022-11-26T11:55:54.226Z,99.40
2022-11-26T11:58:39.538Z,98.90
2022-11-26T12:01:12.710Z,99.40
2022-11-26T12:03:56.678Z,99.90
2022-11-26T12:06:29.590Z,99.90
2022-11-26T12:09:03.716Z,99.90
2022-11-26T12:11:37.020Z,99.90
2022-11-26T12:14:07.912Z,99.90
2022-11-26T12:16:39.321Z,99.90
2022-11-26T12:19:12.269Z,99.90
2022-11-26T12:21:41.744Z,99.90
2022-11-26T12:24:12.728Z,99.90
2022-11-26T12:26:41.730Z,99.90
2022-11-26T12:29:13.029Z,99.90
2022-11-26T12:31:44.818Z,99.90
2022-11-26T12:34:23.381Z,99.90
2022-11-26T12:36:54.117Z,99.90
2022-11-26T12:39:30.503Z,99.90
2022-11-26T12:42:00.117Z,99.90
2022-11-26T12:44:30.398Z,99.90
2022-11-26T12:47:03.001Z,99.90
2022-11-26T12:49:35.717Z,99.90
2022-11-26T12:52:08.157Z,99.90
2022-11-26T12:54:40.538Z,99.90
2022-11-26T12:57:11.437Z,99.90
2022-11-26T12:59:41.948Z,99.90
2022-11-26T13:02:24.964Z,99.90
2022-11-26T13:04:53.512Z,99.90
2022-11-26T13:07:30.109Z,99.90
2022-11-26T13:10:04.221Z,99.90
2022-11-26T13:12:38.556Z,99.90
2022-11-26T13:15:11.728Z,99.90
2022-11-26T13:17:43.097Z,99.90
2022-11-26T13:20:17.428Z,99.90
2022-11-26T13:22:58.820Z,99.90
2022-11-26T13:26:02.802Z,99.90
2022-11-26T13:28:50.777Z,99.90
2022-11-26T13:31:28.307Z,99.90
2022-11-26T13:34:14.906Z,99.90
2022-11-26T13:37:05.581Z,99.90
2022-11-26T13:40:05.698Z,99.90
2022-11-26T13:42:51.317Z,99.90
2022-11-26T13:45:45.622Z,99.90
2022-11-26T13:48:15.501Z,99.90
2022-11-26T13:50:46.105Z,99.90
2022-11-26T13:53:16.955Z,99.90
2022-11-26T13:55:46.663Z,99.90
2022-11-26T13:58:17.214Z,99.90
2022-11-26T14:00:45.293Z,99.90
2022-11-26T14:03:46.915Z,99.90
2022-11-26T14:06:14.970Z,99.90
2022-11-26T14:08:45.072Z,99.90
2022-11-26T14:11:17.145Z,99.90
2022-11-26T14:13:47.850Z,99.90
2022-11-26T14:16:16.001Z,99.90
2022-11-26T14:19:03.535Z,99.90
2022-11-26T14:21:31.742Z,99.90
2022-11-26T14:24:02.137Z,99.90
2022-11-26T14:26:37.445Z,99.90
2022-11-26T14:29:13.115Z,99.90
2022-11-26T14:31:42.849Z,99.90
2022-11-26T14:34:15.145Z,99.90
2022-11-26T14:36:52.867Z,99.90
2022-11-26T14:39:20.943Z,99.90
2022-11-26T14:41:59.088Z,99.90
2022-11-26T14:44:32.218Z,99.90
2022-11-26T14:47:00.821Z,99.90
2022-11-26T14:49:38.781Z,99.90
2022-11-26T14:52:15.989Z,99.90
2022-11-26T14:54:45.808Z,99.90
2022-11-26T14:57:14.919Z,99.90
2022-11-26T14:59:56.445Z,99.90
2022-11-26T15:02:25.469Z,99.90
2022-11-26T15:05:00.766Z,99.90
2022-11-26T15:07:29.331Z,99.90
2022-11-26T15:10:04.342Z,99.90
2022-11-26T15:12:32.488Z,99.90
2022-11-26T15:15:00.553Z,99.90
2022-11-26T15:17:29.561Z,99.90
2022-11-26T15:19:59.683Z,99.90
2022-11-26T15:22:31.461Z,99.90
2022-11-26T15:24:59.515Z,99.90
2022-11-26T15:27:32.159Z,99.90
2022-11-26T15:30:00.247Z,99.90
2022-11-26T15:32:29.289Z,99.90
2022-11-26T15:35:00.107Z,99.90
2022-11-26T15:37:28.318Z,99.90
2022-11-26T15:40:10.854Z,99.90
2022-11-26T15:42:39.772Z,99.90
2022-11-26T15:45:14.787Z,99.90
2022-11-26T15:47:46.408Z,99.90
2022-11-26T15:50:23.555Z,99.90
2022-11-26T15:52:51.763Z,99.90
2022-11-26T15:55:22.303Z,99.90
2022-11-26T15:57:51.132Z,99.90
2022-11-26T16:00:23.173Z,99.70
2022-11-26T16:02:52.309Z,98.80
2022-11-26T16:05:28.740Z,98.30
2022-11-26T16:07:58.342Z,97.40
2022-11-26T16:10:27.979Z,94.30
2022-11-26T16:13:07.479Z,94.00
2022-11-26T16:15:35.745Z,93.20
2022-11-26T16:18:04.893Z,86.90
2022-11-26T16:20:34.367Z,83.20
2022-11-26T16:23:02.518Z,78.40
2022-11-26T16:25:31.734Z,69.00
2022-11-26T16:28:07.232Z,61.20
2022-11-26T16:30:36.221Z,52.20
2022-11-26T16:33:04.403Z,51.60
2022-11-26T16:35:49.398Z,53.20
2022-11-26T16:38:20.242Z,54.30
2022-11-26T16:40:48.300Z,58.70
2022-11-26T16:43:16.612Z,57.30
2022-11-26T16:45:44.970Z,59.90
2022-11-26T16:48:20.529Z,63.40
2022-11-26T16:50:49.961Z,63.70
2022-11-26T16:53:18.207Z,63.10
2022-11-26T16:55:46.394Z,63.20
2022-11-26T16:58:18.263Z,62.20
2022-11-26T17:00:46.302Z,64.50
2022-11-26T17:03:14.851Z,55.20
2022-11-26T17:05:43.229Z,59.30
2022-11-26T17:08:12.982Z,58.90
2022-11-26T17:10:41.080Z,58.90
2022-11-26T17:13:09.308Z,58.10
2022-11-26T17:15:37.415Z,57.20
2022-11-26T17:18:06.448Z,51.20
2022-11-26T17:20:34.818Z,40.10
2022-11-26T17:23:03.066Z,38.00
2022-11-26T17:25:32.693Z,31.20
2022-11-26T17:28:00.797Z,28.60
2022-11-26T17:30:29.015Z,21.80
2022-11-26T17:32:57.595Z,11.80
2022-11-26T17:35:26.026Z,3.70
2022-11-26T17:37:54.216Z,1.00
2022-11-26T17:40:23.534Z,1.00
2022-11-26T17:42:53.042Z,1.00
2022-11-26T17:45:21.246Z,1.00
2022-11-26T17:47:49.419Z,1.00
2022-11-26T17:50:19.762Z,1.00
2022-11-26T17:52:48.713Z,1.00
2022-11-26T17:55:16.957Z,1.00
2022-11-26T17:57:45.124Z,1.00
2022-11-26T18:00:16.567Z,1.00
2022-11-26T18:02:46.276Z,1.00
2022-11-26T18:05:14.652Z,1.00
2022-11-26T18:07:42.884Z,1.00
2022-11-26T18:10:12.672Z,1.00
2022-11-26T18:12:40.892Z,1.00
2022-11-26T18:15:09.664Z,1.00
2022-11-26T18:17:39.135Z,1.00
2022-11-26T18:20:10.134Z,1.00
2022-11-26T18:22:38.235Z,1.00
2022-11-26T18:25:06.794Z,1.00
2022-11-26T18:27:34.936Z,1.00
2022-11-26T18:30:03.679Z,1.00
2022-11-26T18:32:31.877Z,1.00
2022-11-26T18:35:01.810Z,1.00
2022-11-26T18:37:30.171Z,1.00
2022-11-26T18:39:58.307Z,1.00
2022-11-26T18:42:41.798Z,1.00
2022-11-26T18:45:11.879Z,1.00
2022-11-26T18:47:40.108Z,1.00
2022-11-26T18:50:10.472Z,1.00
2022-11-26T18:52:38.967Z,1.00
2022-11-26T18:55:08.738Z,1.00
2022-11-26T18:57:36.983Z,1.00
2022-11-26T19:00:06.188Z,1.00
2022-11-26T19:02:35.105Z,1.00
2022-11-26T19:05:03.644Z,1.00
2022-11-26T19:07:33.614Z,1.00
2022-11-26T19:10:01.886Z,1.00
2022-11-26T19:12:30.102Z,1.00
2022-11-26T19:14:58.297Z,1.00
2022-11-26T19:17:26.466Z,1.00
2022-11-26T19:19:54.590Z,1.00
2022-11-26T19:22:22.933Z,1.00
2022-11-26T19:24:52.498Z,1.00
2022-11-26T19:27:20.819Z,1.00
2022-11-26T19:29:49.002Z,1.00
2022-11-26T19:32:17.245Z,1.00
2022-11-26T19:34:45.450Z,1.00
2022-11-26T19:37:13.608Z,1.00
2022-11-26T19:39:42.014Z,1.00
2022-11-26T19:42:11.842Z,1.00
2022-11-26T19:44:40.095Z,1.00
2022-11-26T19:47:08.596Z,1.00
2022-11-26T19:49:36.848Z,1.00
2022-11-26T19:52:05.338Z,1.00
2022-11-26T19:54:33.577Z,1.00
2022-11-26T19:57:01.718Z,1.00
2022-11-26T19:59:31.184Z,1.00
2022-11-26T20:01:59.402Z,1.00
2022-11-26T20:04:29.678Z,1.00
2022-11-26T20:06:58.695Z,1.00
2022-11-26T20:09:26.798Z,1.00
2022-11-26T20:11:55.249Z,1.00
2022-11-26T20:14:23.408Z,1.00
2022-11-26T20:16:56.342Z,1.00
2022-11-26T20:19:28.767Z,1.00
2022-11-26T20:21:56.909Z,1.00
2022-11-26T20:24:25.055Z,1.00
2022-11-26T20:26:53.439Z,1.00
2022-11-26T20:29:22.097Z,1.00
2022-11-26T20:31:52.417Z,1.00
2022-11-26T20:34:21.692Z,1.00
2022-11-26T20:36:49.993Z,1.00
2022-11-26T20:39:19.393Z,1.00
2022-11-26T20:41:47.794Z,1.00
2022-11-26T20:44:15.939Z,1.00
2022-11-26T20:46:44.379Z,1.00
2022-11-26T20:49:15.977Z,1.00
2022-11-26T20:51:44.433Z,1.00
2022-11-26T20:54:12.720Z,1.00
2022-11-26T20:56:40.826Z,1.00
2022-11-26T20:59:09.669Z,1.00
2022-11-26T21:01:40.113Z,1.00
2022-11-26T21:04:08.388Z,1.00
2022-11-26T21:06:38.654Z,1.00
2022-11-26T21:09:07.420Z,1.00
2022-11-26T21:11:35.684Z,1.00
2022-11-26T21:14:04.035Z,1.00
2022-11-26T21:16:32.303Z,1.00
2022-11-26T21:19:00.937Z,1.00
2022-11-26T21:21:29.476Z,1.00
2022-11-26T21:23:59.197Z,1.00
2022-11-26T21:26:27.675Z,1.00
2022-11-26T21:28:56.482Z,1.00
2022-11-26T21:31:24.730Z,99.90
2022-11-26T21:33:55.767Z,1.00
2022-11-26T21:36:23.929Z,1.00
2022-11-26T21:38:52.155Z,1.00
2022-11-26T21:41:21.661Z,1.00
2022-11-26T21:43:49.800Z,1.00
2022-11-26T21:46:19.203Z,1.00
2022-11-26T21:48:47.307Z,1.00
2022-11-26T21:51:16.682Z,1.00
2022-11-26T21:53:44.896Z,99.90
2022-11-26T21:56:15.137Z,1.00
2022-11-26T21:58:44.696Z,1.00
2022-11-26T22:01:13.363Z,1.00
2022-11-26T22:03:42.324Z,1.00
2022-11-26T22:06:10.493Z,1.00
2022-11-26T22:08:38.744Z,1.00
2022-11-26T22:11:10.531Z,1.00
2022-11-26T22:13:38.653Z,1.00
2022-11-26T22:16:08.793Z,1.00
2022-11-26T22:18:37.879Z,1.00
2022-11-26T22:21:06.378Z,1.00
2022-11-26T22:23:34.644Z,1.00
2022-11-26T22:26:02.689Z,1.00
2022-11-26T22:28:30.928Z,99.90
2022-11-26T22:30:59.061Z,1.00
2022-11-26T22:33:28.664Z,1.00
2022-11-26T22:35:57.087Z,99.90
2022-11-26T22:38:25.328Z,99.90
2022-11-26T22:40:53.455Z,99.90
2022-11-26T22:43:21.606Z,99.90
2022-11-26T22:45:49.733Z,1.00
2022-11-26T22:48:17.809Z,1.00
2022-11-26T22:50:52.731Z,1.00
2022-11-26T22:53:20.928Z,1.00
2022-11-26T22:55:52.334Z,1.00
2022-11-26T22:58:20.585Z,1.00
2022-11-26T23:00:50.280Z,1.00
2022-11-26T23:03:18.721Z,99.90
2022-11-26T23:05:47.016Z,99.90
2022-11-26T23:08:16.589Z,99.90
2022-11-26T23:10:44.767Z,99.90
2022-11-26T23:13:13.626Z,99.90
2022-11-26T23:15:44.673Z,99.90
2022-11-26T23:18:13.518Z,99.90
2022-11-26T23:20:41.691Z,99.90
2022-11-26T23:23:09.906Z,99.90
2022-11-26T23:25:40.547Z,99.90
2022-11-26T23:28:08.701Z,99.90
2022-11-26T23:30:36.820Z,99.90
2022-11-26T23:33:04.997Z,99.90
2022-11-26T23:35:33.052Z,99.90
2022-11-26T23:38:01.202Z,1.00
2022-11-26T23:40:29.244Z,99.90
2022-11-26T23:42:58.734Z,1.00
2022-11-26T23:45:26.806Z,1.00
2022-11-26T23:47:54.913Z,99.90
2022-11-26T23:50:22.981Z,1.00
2022-11-26T23:52:51.133Z,1.00
2022-11-26T23:55:19.233Z,1.00
2022-11-26T23:57:47.385Z,1.00
